Contact Us:
Email: info@sawbill.com
Phone: (218)663-7150
Fax: (218)663-7980
Mail: 4620 Sawbill Trail
Box 2129
Tofte, MN 55615


Powered by
Movable Type 3.15
 
Sawbill Weather History Archives: May 2009
Current Sawbill Weather History | « April 2009 | June 2009 »


Date

High
Temperature

Low
Temperature

Barometric
Pressure

Relative
Humidity 7AM

9 AM
Temperature

Moisture

Snow

5/31/09 41 35 29.91 95% 37 .14"
5/30/09 53 33 30.00 72% 35 0
5/29/09 62 45 29.77 80% 45 .04"
5/28/09 69 43 29.97 70% 45 0
5/27/09 59 42 29.88 89% 43 0
5/26/09 53 42 30.03 92% 43 .13"
5/25/09 56 41 29.94 46% 47 0
5/24/09 64 39 30.24 63% 41 0
5/23/09 57 37 30.24 83% 39 0
5/22/09 60 40 30.15 76% 44 0
5/21/09 61 35 30.33 62% 40 0
5/20/09 82 41 30.00 88% 49 .14"
5/19/09 49 36 29.83 97% 41 .04"
5/18/09 68 37 30.24 70% 38 .03"
5/17/09 58 34 30.03 57% 46 0
5/16/09 42 29 30.24 73% 34 .02" Trace
5/15/09 57 29 29.83 77% 29 .5" Trace
5/14/09 38 29 30.12 84% 31 .03" Trace
5/13/09 66 33 29.71 82% 33 .28" Trace
5/12/09 49 38 29.86 98% 48 .05"
5/11/09 57 34 30.00 73% 38 Trace
5/10/09 53 33 30.12 55% 37 0
5/9/09 39 30 30.12 83% 32 Trace Trace
5/8/09 56 32 29.94 84% 32 .06" Trace
5/7/09 65 35 29.99 72% 39 0
5/6/09 65 40 29.65 85% 41 .05"
5/5/09 60 37 29.71 92% 42 .37"
5/4/09 59 31 29.88 69% 37 0
5/3/09 54 31 30.03 70% 31 0
5/2/09 47 30 29.85 75% 33 Trace Trace
5/1/09 44 33 29.83 83% 35 Trace
 


Home I Trip Planning I Rentals and Outfitting I Reservations I Campgrounds I Sawbill Store I Sawbill News I Contact

© 1997 - 2017, Sawbill Canoe Outfitters, Inc. I Privacy Policy